Time;durP1;ratioP1;P1;durP2;ratioP2;P2;SDS_P1;SDS_P2;PMS_P1;PMS_P2;Temp;Humidity;BMP_temperature;BMP_pressure;BME280_temperature;BME280_humidity;BME280_pressure;Samples;Min_cycle;Max_cycle;Signal;HPM_P1;HPM_P2
2021/10/05 00:01:49;;;;;;;17.92;10.85;;;14.90;91.10;;;;;;4995098;28;20033;-66
2021/10/05 00:04:15;;;;;;;16.45;10.02;;;14.90;91.10;;;;;;4996345;28;20109;-66
2021/10/05 00:06:41;;;;;;;17.95;10.73;;;14.90;91.10;;;;;;4996374;28;20022;-68
2021/10/05 00:09:08;;;;;;;16.67;10.38;;;14.80;91.20;;;;;;4996345;28;20052;-67
2021/10/05 00:11:34;;;;;;;16.42;10.02;;;14.70;91.30;;;;;;4996253;28;20455;-68
2021/10/05 00:14:00;;;;;;;19.40;10.60;;;14.70;91.70;;;;;;4996236;28;20062;-67
2021/10/05 00:16:26;;;;;;;21.05;11.32;;;14.70;91.80;;;;;;4994846;28;20026;-69
2021/10/05 00:18:52;;;;;;;18.38;11.57;;;14.70;91.80;;;;;;4994835;28;20038;-68
2021/10/05 00:21:20;;;;;;;16.98;10.18;;;14.70;91.70;;;;;;4994707;28;20122;-70
2021/10/05 00:23:46;;;;;;;15.00;11.57;;;14.60;91.90;;;;;;4996320;28;20027;-66
2021/10/05 00:26:12;;;;;;;21.10;10.45;;;14.50;92.30;;;;;;4993828;28;20058;-69
2021/10/05 00:28:37;;;;;;;17.42;10.75;;;14.50;92.30;;;;;;4995651;28;20069;-68
2021/10/05 00:31:04;;;;;;;19.20;11.90;;;14.50;92.30;;;;;;4995885;28;20046;-66
2021/10/05 00:33:30;;;;;;;18.30;12.32;;;14.40;92.20;;;;;;4995828;28;20038;-68
2021/10/05 00:35:56;;;;;;;19.23;10.70;;;14.40;92.40;;;;;;4995783;28;20049;-66
2021/10/05 00:38:22;;;;;;;17.15;12.00;;;14.40;92.60;;;;;;4995879;28;20030;-67
2021/10/05 00:40:48;;;;;;;17.00;10.40;;;14.40;92.50;;;;;;4995776;28;20036;-66
2021/10/05 00:43:14;;;;;;;18.35;10.60;;;14.40;92.40;;;;;;4995891;28;20045;-66
2021/10/05 00:45:40;;;;;;;18.92;10.57;;;14.30;92.30;;;;;;4995632;28;20041;-68
2021/10/05 00:48:06;;;;;;;17.67;10.40;;;14.30;92.30;;;;;;4994254;28;20037;-67
2021/10/05 00:50:33;;;;;;;16.65;10.68;;;14.30;92.50;;;;;;4995794;28;20026;-67
2021/10/05 00:52:59;;;;;;;13.88;9.57;;;14.20;92.70;;;;;;4995494;28;20036;-68
2021/10/05 00:55:25;;;;;;;19.83;10.27;;;14.20;92.90;;;;;;4995446;28;20034;-68
2021/10/05 00:57:52;;;;;;;15.65;10.75;;;14.20;92.90;;;;;;4994040;28;20089;-66
2021/10/05 01:00:21;;;;;;;16.75;10.95;;;14.20;92.90;;;;;;4995361;28;20038;-68
2021/10/05 01:02:47;;;;;;;18.23;11.48;;;14.10;93.10;;;;;;4995292;28;20033;-67
2021/10/05 01:05:14;;;;;;;15.48;10.70;;;;;;;;;;4995498;28;20049;-69
2021/10/05 01:07:40;;;;;;;18.98;10.30;;;14.10;93.20;;;;;;4994162;28;20352;-68
2021/10/05 01:10:07;;;;;;;20.42;11.98;;;14.00;93.50;;;;;;4995139;28;20033;-68
2021/10/05 01:12:33;;;;;;;16.25;9.75;;;14.00;93.40;;;;;;4994838;28;20125;-67
2021/10/05 01:14:59;;;;;;;16.35;9.65;;;14.00;93.50;;;;;;4995085;28;20026;-66
2021/10/05 01:17:25;;;;;;;15.93;10.23;;;13.90;93.50;;;;;;4994973;28;20046;-66
2021/10/05 01:19:50;;;;;;;15.63;10.95;;;13.90;93.60;;;;;;4994908;28;20038;-68
2021/10/05 01:22:16;;;;;;;16.88;11.07;;;13.90;93.60;;;;;;4994876;28;20133;-69
2021/10/05 01:24:42;;;;;;;18.33;10.88;;;13.80;93.90;;;;;;4993537;28;20022;-67
2021/10/05 01:27:11;;;;;;;20.65;10.57;;;13.80;93.70;;;;;;4994814;28;20041;-66
2021/10/05 01:29:36;;;;;;;20.70;10.45;;;13.80;93.80;;;;;;4994825;28;20035;-69
2021/10/05 01:32:05;;;;;;;18.95;11.00;;;13.70;93.90;;;;;;4994787;28;20026;-67
2021/10/05 01:34:31;;;;;;;25.25;10.90;;;13.60;94.20;;;;;;4994698;28;20030;-67
2021/10/05 01:36:58;;;;;;;17.77;11.55;;;13.40;94.60;;;;;;4994670;28;20029;-67
2021/10/05 01:39:32;;;;;;;16.77;10.88;;;13.40;94.70;;;;;;4994076;28;20463;-67
2021/10/05 01:42:08;;;;;;;18.77;11.18;;;13.50;94.60;;;;;;4993250;28;20038;-68
2021/10/05 01:44:35;;;;;;;19.55;12.10;;;13.50;94.70;;;;;;4993245;28;20033;-67
2021/10/05 01:47:03;;;;;;;19.65;11.57;;;13.40;94.70;;;;;;4994507;28;20113;-66
2021/10/05 01:49:28;;;;;;;21.95;10.73;;;13.40;94.80;;;;;;4994810;28;20030;-67
2021/10/05 01:51:54;;;;;;;19.38;11.15;;;13.50;94.70;;;;;;4994416;28;20033;-67
2021/10/05 01:54:21;;;;;;;18.67;10.60;;;13.50;94.40;;;;;;4993055;28;20057;-66
2021/10/05 01:56:47;;;;;;;20.45;10.07;;;13.50;94.60;;;;;;4994303;28;20030;-67
2021/10/05 01:59:13;;;;;;;18.05;10.70;;;13.40;94.40;;;;;;4993940;28;20070;-66
2021/10/05 02:01:39;;;;;;;16.77;10.70;;;13.50;94.70;;;;;;4992969;28;20062;-68
2021/10/05 02:04:09;;;;;;;17.38;10.70;;;13.40;94.60;;;;;;4993934;28;20054;-65
2021/10/05 02:06:35;;;;;;;15.15;10.68;;;13.40;94.60;;;;;;4992893;28;20435;-65
2021/10/05 02:09:03;;;;;;;14.95;9.80;;;13.30;94.90;;;;;;4992837;28;20069;-68
2021/10/05 02:11:28;;;;;;;19.10;10.68;;;13.30;95.00;;;;;;4994389;28;20049;-67
2021/10/05 02:13:54;;;;;;;17.80;10.02;;;13.30;95.50;;;;;;4992460;28;20530;-66
2021/10/05 02:16:20;;;;;;;14.43;9.85;;;13.30;95.30;;;;;;4993983;28;20490;-67
2021/10/05 02:18:46;;;;;;;14.68;10.38;;;13.30;95.30;;;;;;4992649;28;20118;-66
2021/10/05 02:21:17;;;;;;;18.33;10.75;;;13.20;95.90;;;;;;4994003;28;20081;-66
2021/10/05 02:26:29;;;;;;;16.92;10.35;;;13.20;96.20;;;;;;4993618;28;20062;-67
2021/10/05 02:28:54;;;;;;;15.63;10.20;;;13.10;96.10;;;;;;4993853;28;20034;-65
2021/10/05 02:31:20;;;;;;;14.43;10.02;;;13.10;96.30;;;;;;4993902;28;20026;-65
2021/10/05 02:33:46;;;;;;;17.83;10.93;;;13.00;96.20;;;;;;4993784;28;20038;-66
2021/10/05 02:36:12;;;;;;;17.85;10.77;;;13.10;99.90;;;;;;4993794;28;20023;-68
2021/10/05 02:38:38;;;;;;;18.98;11.05;;;12.90;96.60;;;;;;4992337;28;20391;-68
2021/10/05 02:41:04;;;;;;;14.77;10.45;;;12.80;96.90;;;;;;4993776;28;20418;-69
2021/10/05 02:43:30;;;;;;;16.92;10.43;;;12.90;99.90;;;;;;4993691;28;20037;-67
2021/10/05 02:45:56;;;;;;;15.77;10.38;;;12.80;98.00;;;;;;4993667;28;20081;-69
2021/10/05 02:48:22;;;;;;;21.85;11.18;;;12.80;99.90;;;;;;4992351;28;20037;-68
2021/10/05 02:50:48;;;;;;;17.92;10.35;;;12.70;99.90;;;;;;4996060;28;20026;-67
2021/10/05 02:53:14;;;;;;;14.85;10.52;;;12.70;99.90;;;;;;4997657;28;20026;-68
2021/10/05 02:55:40;;;;;;;16.45;10.60;;;12.60;99.90;;;;;;4996288;28;20045;-68
2021/10/05 02:58:07;;;;;;;18.30;10.80;;;12.70;99.90;;;;;;4997523;28;20030;-67
2021/10/05 03:00:34;;;;;;;13.43;9.40;;;12.60;99.90;;;;;;4997686;28;20118;-71
2021/10/05 03:02:59;;;;;;;19.42;10.32;;;12.60;99.40;;;;;;4996155;28;20022;-70
2021/10/05 03:05:25;;;;;;;19.60;10.18;;;12.60;99.90;;;;;;4997539;28;20035;-66
2021/10/05 03:07:51;;;;;;;16.77;9.93;;;12.50;99.90;;;;;;4996073;28;20031;-67
2021/10/05 03:10:17;;;;;;;14.10;9.98;;;12.50;99.90;;;;;;4997165;28;20022;-67
2021/10/05 03:12:43;;;;;;;15.98;9.70;;;12.50;99.90;;;;;;4996999;28;20062;-66
2021/10/05 03:15:09;;;;;;;16.20;10.25;;;12.50;99.90;;;;;;4997283;28;20073;-67
2021/10/05 03:17:35;;;;;;;16.45;9.82;;;12.60;99.90;;;;;;4995840;28;20433;-66
2021/10/05 03:20:02;;;;;;;19.08;9.55;;;12.50;99.90;;;;;;4996009;28;20030;-67
2021/10/05 03:22:28;;;;;;;15.23;9.52;;;12.60;99.90;;;;;;4997156;28;20063;-67
2021/10/05 03:24:54;;;;;;;13.45;9.80;;;12.60;99.80;;;;;;4997443;28;20421;-67
2021/10/05 03:27:19;;;;;;;18.40;9.63;;;12.60;99.30;;;;;;4996804;28;20027;-64
2021/10/05 03:29:46;;;;;;;15.38;9.18;;;12.60;99.10;;;;;;4995695;28;20049;-65
2021/10/05 03:32:12;;;;;;;19.23;9.93;;;12.70;99.00;;;;;;4997598;28;20053;-67
2021/10/05 03:34:37;;;;;;;17.88;8.85;;;12.50;98.80;;;;;;4995642;28;20062;-67
2021/10/05 03:37:04;;;;;;;16.50;8.95;;;12.60;98.70;;;;;;4995297;28;20037;-68
2021/10/05 03:39:30;;;;;;;14.98;9.63;;;12.60;98.60;;;;;;4995450;28;20467;-69
2021/10/05 03:41:56;;;;;;;18.70;10.00;;;12.60;98.60;;;;;;4996866;28;20092;-68
2021/10/05 03:44:21;;;;;;;13.48;9.27;;;12.60;98.50;;;;;;4995456;28;20034;-70
2021/10/05 03:46:47;;;;;;;13.70;9.40;;;12.50;98.60;;;;;;4996689;28;20026;-66
2021/10/05 03:49:13;;;;;;;19.38;10.55;;;12.50;98.80;;;;;;4996688;28;20394;-68
2021/10/05 03:51:39;;;;;;;16.98;9.50;;;12.50;99.00;;;;;;4996696;28;20041;-68
2021/10/05 03:54:05;;;;;;;16.02;9.55;;;12.50;99.40;;;;;;4995271;28;20525;-67
2021/10/05 03:56:31;;;;;;;18.42;9.85;;;12.50;99.60;;;;;;4996572;28;20438;-68
2021/10/05 03:58:56;;;;;;;17.70;9.90;;;12.50;99.40;;;;;;4996432;28;20379;-67
2021/10/05 04:01:22;;;;;;;19.17;9.65;;;12.50;99.40;;;;;;4996687;28;20053;-69
2021/10/05 04:03:48;;;;;;;23.30;10.30;;;12.40;99.50;;;;;;4995119;28;20121;-67
2021/10/05 04:06:14;;;;;;;16.40;10.05;;;12.40;99.90;;;;;;4996111;28;20429;-68
2021/10/05 04:08:40;;;;;;;17.50;10.07;;;12.30;99.90;;;;;;4996307;28;20037;-68
2021/10/05 04:11:18;;;;;;;20.80;9.45;;;12.30;99.90;;;;;;4996440;28;20043;-70
2021/10/05 04:13:44;;;;;;;17.00;10.30;;;12.30;99.90;;;;;;4996275;28;20157;-69
2021/10/05 04:16:10;;;;;;;19.13;10.73;;;12.30;99.90;;;;;;4994886;28;20051;-67
2021/10/05 04:18:36;;;;;;;19.77;11.43;;;12.30;99.90;;;;;;4994763;28;20502;-69
2021/10/05 04:21:02;;;;;;;14.45;10.70;;;12.30;99.90;;;;;;4996173;28;20038;-66
2021/10/05 04:23:27;;;;;;;20.88;11.43;;;12.10;99.90;;;;;;4995802;28;20080;-66
2021/10/05 04:25:53;;;;;;;25.67;10.73;;;12.00;99.90;;;;;;4996350;28;20119;-68
2021/10/05 04:28:19;;;;;;;25.08;10.30;;;12.10;99.90;;;;;;4996185;28;20049;-67
2021/10/05 04:30:45;;;;;;;13.00;9.77;;;12.10;99.90;;;;;;4995902;28;20038;-69
2021/10/05 04:33:11;;;;;;;19.50;9.80;;;12.10;99.90;;;;;;4995636;28;20030;-68
2021/10/05 04:35:37;;;;;;;18.55;10.70;;;12.10;99.90;;;;;;4994594;28;20030;-66
2021/10/05 04:38:03;;;;;;;18.55;10.55;;;12.10;99.90;;;;;;4995713;28;20035;-64
2021/10/05 04:40:29;;;;;;;26.02;11.63;;;12.00;99.90;;;;;;4994444;28;20041;-67
2021/10/05 04:42:55;;;;;;;23.70;10.40;;;12.10;99.90;;;;;;4995711;28;20106;-66
2021/10/05 04:45:20;;;;;;;22.13;11.18;;;12.10;99.90;;;;;;4995348;28;20025;-67
2021/10/05 04:47:46;;;;;;;27.70;11.68;;;12.10;99.90;;;;;;4994243;28;20080;-64
2021/10/05 04:50:14;;;;;;;17.30;11.10;;;12.10;99.90;;;;;;4995536;28;20034;-66
2021/10/05 04:52:42;;;;;;;27.52;11.60;;;12.10;99.90;;;;;;4995555;28;20027;-67
2021/10/05 04:55:08;;;;;;;28.25;11.50;;;12.10;99.90;;;;;;4995465;28;20022;-70
2021/10/05 04:57:34;;;;;;;15.13;10.70;;;12.10;99.90;;;;;;4994127;28;20036;-70
2021/10/05 05:00:00;;;;;;;17.70;11.48;;;12.10;99.90;;;;;;4995260;28;20113;-68
2021/10/05 05:02:26;;;;;;;20.77;10.98;;;12.10;99.90;;;;;;4995392;28;20022;-66
2021/10/05 05:04:52;;;;;;;18.08;10.70;;;12.10;99.90;;;;;;4995306;28;20537;-66
2021/10/05 05:07:18;;;;;;;18.85;10.32;;;12.10;99.90;;;;;;4994872;28;20031;-64
2021/10/05 05:09:44;;;;;;;16.52;9.82;;;12.10;99.90;;;;;;4995177;28;20030;-65
2021/10/05 05:12:10;;;;;;;15.38;9.68;;;12.10;99.90;;;;;;4994372;28;20165;-66
2021/10/05 05:14:35;;;;;;;18.55;9.93;;;12.10;99.90;;;;;;4994915;28;20078;-64
2021/10/05 05:17:01;;;;;;;17.33;9.77;;;12.10;99.90;;;;;;4995029;28;20352;-65
2021/10/05 05:19:28;;;;;;;19.38;9.88;;;12.20;99.90;;;;;;4994884;28;20074;-64
2021/10/05 05:21:55;;;;;;;19.05;10.80;;;12.20;99.90;;;;;;4989162;28;20041;-66
2021/10/05 05:24:20;;;;;;;13.95;9.93;;;12.20;99.90;;;;;;4994868;28;20026;-64
2021/10/05 05:26:46;;;;;;;19.27;9.82;;;12.30;99.90;;;;;;4998894;28;20169;-65
2021/10/05 05:29:12;;;;;;;25.00;10.60;;;12.40;99.90;;;;;;4993870;28;20479;-66
2021/10/05 05:31:38;;;;;;;20.50;10.98;;;12.40;99.90;;;;;;4992808;28;20039;-65
2021/10/05 05:34:04;;;;;;;18.40;10.50;;;12.40;99.90;;;;;;4994557;28;20105;-65
2021/10/05 05:36:29;;;;;;;18.58;9.88;;;12.50;99.90;;;;;;4994264;28;20026;-65
2021/10/05 05:38:57;;;;;;;16.90;10.18;;;12.50;99.90;;;;;;4992615;28;20503;-67
2021/10/05 05:41:22;;;;;;;15.77;10.75;;;12.50;99.90;;;;;;4994470;28;20026;-66
2021/10/05 05:43:48;;;;;;;21.33;10.68;;;12.50;99.90;;;;;;5009681;28;20029;-66
2021/10/05 05:46:14;;;;;;;22.17;11.88;;;12.50;99.90;;;;;;5013970;28;20034;-66
2021/10/05 05:48:40;;;;;;;27.42;11.40;;;12.50;99.90;;;;;;5012459;28;20041;-66
2021/10/05 05:51:06;;;;;;;23.42;13.40;;;12.50;99.90;;;;;;5012560;28;20037;-65
2021/10/05 05:53:31;;;;;;;23.63;14.25;;;12.60;99.90;;;;;;5013970;28;20026;-69
2021/10/05 05:55:57;;;;;;;24.88;10.65;;;12.70;99.90;;;;;;5013833;28;20466;-66
2021/10/05 05:58:23;;;;;;;18.42;11.30;;;12.70;99.90;;;;;;5011688;28;20040;-65
2021/10/05 06:00:49;;;;;;;15.95;11.27;;;12.80;99.90;;;;;;5012734;28;20030;-66
2021/10/05 06:03:15;;;;;;;21.65;10.98;;;12.90;99.90;;;;;;5013599;28;20041;-68
2021/10/05 06:05:41;;;;;;;17.20;9.48;;;13.00;99.90;;;;;;5013510;28;20030;-67
2021/10/05 06:08:08;;;;;;;16.75;10.13;;;13.10;99.90;;;;;;5013626;28;20060;-68
2021/10/05 06:10:34;;;;;;;16.42;9.85;;;13.10;99.90;;;;;;5013443;28;20414;-65
2021/10/05 06:13:00;;;;;;;18.70;9.75;;;13.20;99.90;;;;;;5013186;28;20049;-66
2021/10/05 06:15:26;;;;;;;14.32;10.52;;;13.30;99.90;;;;;;5012222;28;20493;-66
2021/10/05 06:17:52;;;;;;;19.30;10.93;;;13.30;99.90;;;;;;5011939;28;20030;-67
2021/10/05 06:20:21;;;;;;;18.00;10.45;;;13.40;99.90;;;;;;5013417;28;20084;-68
2021/10/05 06:22:47;;;;;;;18.05;10.95;;;13.40;99.90;;;;;;5013410;28;20426;-70
2021/10/05 06:25:25;;;;;;;19.77;11.05;;;13.60;99.90;;;;;;5012280;28;20466;-69
2021/10/05 06:27:52;;;;;;;16.60;10.10;;;13.60;99.90;;;;;;5013434;28;20053;-70
2021/10/05 06:30:19;;;;;;;20.85;10.55;;;13.70;99.90;;;;;;5011875;28;20028;-71
2021/10/05 06:32:47;;;;;;;19.02;11.35;;;13.80;99.90;;;;;;5011642;28;20026;-71
2021/10/05 06:35:13;;;;;;;33.30;16.38;;;13.90;99.90;;;;;;5013282;28;20030;-71
2021/10/05 06:37:39;;;;;;;17.17;12.45;;;13.90;99.90;;;;;;5012869;28;20426;-68
2021/10/05 06:40:07;;;;;;;26.00;16.15;;;14.10;99.90;;;;;;5013113;28;20087;-69
2021/10/05 06:42:35;;;;;;;28.52;15.20;;;14.10;99.60;;;;;;5011980;28;20493;-69
2021/10/05 06:45:06;;;;;;;23.95;15.20;;;14.20;99.90;;;;;;5013178;28;20039;-70
2021/10/05 06:47:33;;;;;;;35.38;19.77;;;;;;;;;;5011606;28;20064;-71
2021/10/05 06:50:00;;;;;;;37.53;20.08;;;14.30;98.90;;;;;;5013156;28;20049;-70
2021/10/05 06:52:26;;;;;;;32.20;18.15;;;14.50;97.20;;;;;;5011898;28;20098;-70
2021/10/05 06:54:52;;;;;;;25.27;13.75;;;14.60;96.90;;;;;;5013323;28;20033;-70
2021/10/05 06:57:18;;;;;;;17.67;9.75;;;14.60;96.40;;;;;;5013040;28;20360;-69
2021/10/05 06:59:44;;;;;;;20.33;8.93;;;;;;;;;;5011609;28;20038;-70
2021/10/05 07:02:10;;;;;;;18.42;10.20;;;15.60;99.90;;;;;;5012241;28;20030;-71
2021/10/05 07:04:36;;;;;;;21.13;9.18;;;;;;;;;;5011665;28;20026;-71
2021/10/05 07:07:02;;;;;;;21.65;10.02;;;15.80;99.90;;;;;;5011797;28;20147;-72
2021/10/05 07:09:28;;;;;;;21.50;11.05;;;16.50;99.90;;;;;;5012628;28;20026;-69
2021/10/05 07:11:53;;;;;;;21.67;10.60;;;16.50;99.90;;;;;;5013060;28;20034;-70
2021/10/05 07:14:19;;;;;;;23.52;10.00;;;16.80;99.90;;;;;;5011406;28;20050;-71
2021/10/05 07:16:45;;;;;;;24.02;11.02;;;;;;;;;;5012949;28;20041;-70
2021/10/05 07:19:11;;;;;;;24.50;10.40;;;;;;;;;;5012422;28;20030;-69
2021/10/05 07:21:37;;;;;;;22.67;10.60;;;16.90;99.10;;;;;;5012976;28;20069;-69
2021/10/05 07:24:03;;;;;;;19.50;10.13;;;17.00;94.50;;;;;;5012542;28;20030;-72
2021/10/05 07:26:29;;;;;;;17.70;10.82;;;17.10;95.30;;;;;;5012753;28;20084;-71
2021/10/05 07:28:56;;;;;;;15.52;9.38;;;17.30;95.30;;;;;;5012905;28;20417;-70
2021/10/05 07:31:22;;;;;;;17.77;10.32;;;17.40;93.20;;;;;;5011035;28;20076;-69
2021/10/05 07:33:48;;;;;;;22.67;10.63;;;17.60;93.50;;;;;;5011524;28;20056;-69
2021/10/05 07:36:13;;;;;;;18.50;10.40;;;17.70;93.50;;;;;;5012689;28;20477;-70
2021/10/05 07:38:40;;;;;;;20.67;10.18;;;17.80;91.80;;;;;;5016161;28;20037;-69
2021/10/05 07:41:06;;;;;;;17.88;10.23;;;17.80;92.60;;;;;;5016331;28;20478;-70
2021/10/05 07:43:32;;;;;;;17.25;9.98;;;17.90;92.10;;;;;;5016230;28;20382;-69
2021/10/05 07:46:00;;;;;;;12.10;9.30;;;18.00;91.00;;;;;;5016040;28;20152;-71
2021/10/05 07:48:26;;;;;;;18.95;10.40;;;18.00;90.10;;;;;;5014820;28;20478;-71
2021/10/05 07:50:53;;;;;;;13.15;9.00;;;18.10;90.10;;;;;;5014833;28;20030;-70
2021/10/05 07:53:19;;;;;;;19.73;9.23;;;18.10;90.90;;;;;;5015794;28;20026;-69
2021/10/05 07:55:44;;;;;;;15.43;9.52;;;18.20;91.20;;;;;;5016036;28;20390;-69
2021/10/05 07:58:10;;;;;;;23.52;9.77;;;18.30;91.10;;;;;;5014556;28;20121;-71
2021/10/05 08:00:36;;;;;;;16.80;9.63;;;18.40;90.70;;;;;;5014614;28;20072;-71
2021/10/05 08:03:02;;;;;;;21.70;9.57;;;;;;;;;;5016006;28;20407;-70
2021/10/05 08:05:29;;;;;;;18.60;10.18;;;18.50;90.10;;;;;;5016117;28;20026;-72
2021/10/05 08:08:08;;;;;;;17.73;9.98;;;18.80;90.10;;;;;;5013683;28;20025;-70
2021/10/05 08:10:35;;;;;;;23.67;9.95;;;19.00;88.10;;;;;;5014433;28;20030;-71
2021/10/05 08:13:01;;;;;;;18.48;9.70;;;19.10;88.30;;;;;;5017935;28;20549;-70
2021/10/05 08:15:29;;;;;;;20.27;9.88;;;19.20;88.70;;;;;;5018668;28;20030;-70
2021/10/05 08:17:55;;;;;;;17.98;10.55;;;19.40;85.50;;;;;;5017052;28;20026;-70
2021/10/05 08:20:23;;;;;;;17.35;10.10;;;19.50;86.00;;;;;;5017611;28;20467;-70
2021/10/05 08:22:49;;;;;;;17.25;9.77;;;19.60;85.20;;;;;;5017178;28;20030;-72
2021/10/05 08:25:16;;;;;;;18.02;8.68;;;19.80;85.20;;;;;;5015949;28;20524;-71
2021/10/05 08:27:44;;;;;;;17.20;10.05;;;20.00;84.10;;;;;;5015288;28;20049;-72
2021/10/05 08:30:10;;;;;;;19.80;10.63;;;20.10;81.30;;;;;;5015544;28;20041;-70
2021/10/05 08:32:36;;;;;;;15.25;11.02;;;20.30;80.90;;;;;;5014450;28;20116;-71
2021/10/05 08:35:04;;;;;;;20.73;10.15;;;20.50;79.90;;;;;;5016875;28;20060;-72
2021/10/05 08:37:30;;;;;;;15.05;10.38;;;20.50;80.60;;;;;;5015291;28;20089;-71
2021/10/05 08:39:56;;;;;;;20.80;10.00;;;20.80;79.00;;;;;;5013964;28;20072;-69
2021/10/05 08:42:22;;;;;;;15.93;9.32;;;20.90;78.20;;;;;;5014435;28;20064;-70
2021/10/05 08:44:49;;;;;;;15.18;9.13;;;21.10;79.10;;;;;;5015007;28;20022;-70
2021/10/05 08:47:17;;;;;;;17.10;9.48;;;21.20;79.50;;;;;;5014402;28;20076;-71
2021/10/05 08:49:44;;;;;;;16.30;10.35;;;21.50;77.00;;;;;;5015866;28;20561;-70
2021/10/05 08:52:11;;;;;;;20.70;8.60;;;21.60;76.00;;;;;;5013971;28;20041;-71
2021/10/05 08:54:41;;;;;;;22.80;9.23;;;21.80;76.10;;;;;;5015219;28;20463;-72
2021/10/05 08:57:07;;;;;;;15.18;8.25;;;22.00;74.20;;;;;;5015261;28;20029;-74
2021/10/05 08:59:34;;;;;;;16.02;8.73;;;22.20;72.20;;;;;;5014932;28;20088;-71
2021/10/05 09:02:13;;;;;;;17.80;9.10;;;22.30;72.00;;;;;;5013468;28;20041;-72
2021/10/05 09:04:44;;;;;;;20.35;9.32;;;22.50;70.20;;;;;;5013584;28;20034;-72
2021/10/05 09:07:21;;;;;;;12.93;7.57;;;22.60;71.00;;;;;;5013338;28;20124;-71
2021/10/05 09:09:56;;;;;;;14.88;7.93;;;22.80;70.20;;;;;;5013423;28;20076;-70
2021/10/05 09:12:25;;;;;;;15.95;8.55;;;23.00;69.30;;;;;;5014503;28;20382;-71
2021/10/05 09:14:51;;;;;;;14.13;8.00;;;23.00;70.00;;;;;;5014916;28;20029;-72
2021/10/05 09:17:22;;;;;;;12.77;8.43;;;23.10;70.00;;;;;;5014655;28;20049;-73
2021/10/05 09:19:49;;;;;;;14.75;7.45;;;;;;;;;;5014573;28;20030;-71
2021/10/05 09:22:17;;;;;;;13.65;7.35;;;23.50;67.90;;;;;;5014480;28;20026;-70
2021/10/05 09:24:46;;;;;;;13.70;7.03;;;23.70;67.40;;;;;;5014538;28;20037;-72
2021/10/05 09:27:14;;;;;;;15.20;7.57;;;23.90;67.30;;;;;;5014363;28;20026;-73
2021/10/05 09:29:45;;;;;;;11.57;6.95;;;23.90;68.20;;;;;;5014323;28;20057;-73
2021/10/05 09:32:16;;;;;;;10.43;6.83;;;24.10;69.30;;;;;;5014218;28;20030;-72
2021/10/05 09:34:55;;;;;;;13.27;7.15;;;24.30;68.40;;;;;;5012915;28;20026;-72
2021/10/05 09:37:26;;;;;;;13.77;7.13;;;24.50;68.50;;;;;;5014309;28;20050;-73
2021/10/05 09:40:12;;;;;;;11.10;6.35;;;24.50;67.70;;;;;;5012691;28;20038;-73
2021/10/05 09:42:39;;;;;;;13.90;5.93;;;24.60;65.50;;;;;;5012830;28;20076;-72
2021/10/05 09:45:09;;;;;;;12.55;5.93;;;24.80;64.60;;;;;;5014179;28;20029;-74
2021/10/05 09:48:02;;;;;;;13.07;6.07;;;25.00;65.10;;;;;;5012756;28;20420;-71
2021/10/05 09:50:34;;;;;;;16.67;6.07;;;25.20;64.90;;;;;;5010988;28;20040;-73
2021/10/05 09:53:02;;;;;;;11.40;6.13;;;25.40;64.20;;;;;;5013959;28;20125;-71
2021/10/05 09:55:31;;;;;;;8.75;5.95;;;25.40;63.10;;;;;;5013864;28;20017;-73
2021/10/05 09:57:57;;;;;;;8.23;5.65;;;25.40;62.90;;;;;;5013912;28;20022;-73
2021/10/05 10:00:27;;;;;;;11.50;5.35;;;25.60;61.50;;;;;;5013102;28;20026;-73
2021/10/05 10:02:54;;;;;;;15.52;5.90;;;;;;;;;;5013619;28;20029;-71
2021/10/05 10:05:22;;;;;;;9.88;5.05;;;25.70;62.20;;;;;;5013659;28;20414;-73
2021/10/05 10:07:50;;;;;;;9.23;5.38;;;26.00;57.60;;;;;;5013710;28;20025;-72
2021/10/05 10:10:17;;;;;;;10.10;4.55;;;;;;;;;;5013423;28;20100;-73
2021/10/05 10:12:48;;;;;;;21.95;7.25;;;;;;;;;;5013290;28;20054;-74
2021/10/05 10:15:15;;;;;;;16.05;6.15;;;;;;;;;;5013461;28;20033;-70
2021/10/05 10:17:41;;;;;;;7.65;5.07;;;;;;;;;;5013618;28;20026;-71
2021/10/05 10:20:08;;;;;;;12.63;6.72;;;;;;;;;;5013470;28;20105;-71
2021/10/05 10:22:44;;;;;;;17.02;6.78;;;;;;;;;;5013426;28;20022;-73
2021/10/05 10:25:19;;;;;;;11.45;6.50;;;;;;;;;;4994530;28;20054;-72
2021/10/05 10:27:45;;;;;;;8.13;5.28;;;30.60;52.40;;;;;;4992983;28;20023;-72
2021/10/05 10:30:12;;;;;;;9.93;5.03;;;;;;;;;;4993658;28;20026;-72
2021/10/05 10:32:51;;;;;;;11.27;6.57;;;30.80;51.00;;;;;;4992186;28;20356;-72
2021/10/05 10:35:17;;;;;;;10.88;5.05;;;;;;;;;;4993539;28;20038;-71
2021/10/05 10:37:45;;;;;;;10.50;5.90;;;;;;;;;;4992238;28;20034;-74
2021/10/05 10:40:13;;;;;;;11.50;7.47;;;33.00;46.60;;;;;;4993436;28;20030;-72
2021/10/05 10:42:39;;;;;;;15.40;8.02;;;33.20;46.20;;;;;;4993815;28;20033;-74
2021/10/05 10:45:41;;;;;;;16.85;7.10;;;33.70;47.00;;;;;;4993806;28;20034;-72
2021/10/05 10:48:07;;;;;;;10.93;5.80;;;34.00;44.60;;;;;;4991806;28;20026;-73
2021/10/05 10:50:35;;;;;;;12.10;6.43;;;34.20;43.70;;;;;;4993768;28;20038;-73
2021/10/05 10:53:06;;;;;;;6.80;5.10;;;34.60;44.10;;;;;;4993464;28;20022;-72
2021/10/05 10:55:34;;;;;;;13.85;5.88;;;35.10;42.50;;;;;;4991732;28;20027;-71
2021/10/05 10:58:00;;;;;;;9.40;6.60;;;35.40;41.40;;;;;;4992011;28;20026;-70
2021/10/05 11:00:31;;;;;;;13.93;7.63;;;35.60;41.90;;;;;;4993137;28;20030;-71
2021/10/05 11:02:59;;;;;;;11.82;6.63;;;36.00;40.50;;;;;;4993185;28;20490;-72
2021/10/05 11:05:29;;;;;;;7.38;5.22;;;36.60;40.20;;;;;;4993361;28;20058;-73
2021/10/05 11:07:57;;;;;;;7.07;5.30;;;36.90;40.90;;;;;;4992055;28;20031;-75
2021/10/05 11:10:26;;;;;;;17.27;4.78;;;37.00;39.30;;;;;;4993321;28;20052;-73
2021/10/05 11:12:54;;;;;;;6.40;4.30;;;37.50;39.60;;;;;;5002623;28;20049;-73
2021/10/05 11:15:40;;;;;;;12.93;4.95;;;37.80;39.60;;;;;;5016766;28;20172;-71
2021/10/05 11:18:13;;;;;;;13.70;6.07;;;38.00;38.20;;;;;;5016693;28;20029;-75
2021/10/05 11:20:51;;;;;;;12.05;4.88;;;;;;;;;;5016621;28;20030;-74
2021/10/05 11:23:18;;;;;;;15.55;6.45;;;;;;;;;;4998901;28;20466;-71
2021/10/05 11:25:48;;;;;;;11.07;6.00;;;38.70;38.20;;;;;;4998811;28;20037;-72
2021/10/05 11:28:16;;;;;;;10.07;5.28;;;39.40;37.80;;;;;;5016319;28;20037;-71
2021/10/05 11:30:46;;;;;;;5.40;4.65;;;;;;;;;;5015986;28;20053;-72
2021/10/05 11:33:25;;;;;;;8.90;4.70;;;39.00;36.70;;;;;;5016740;28;20034;-71
2021/10/05 11:35:51;;;;;;;11.73;4.10;;;;;;;;;;5007712;28;20033;-72
2021/10/05 11:38:18;;;;;;;7.53;4.05;;;39.30;41.70;;;;;;4996609;28;20035;-74
2021/10/05 11:40:51;;;;;;;9.40;4.53;;;;;;;;;;4979142;28;20081;-71
2021/10/05 11:43:17;;;;;;;12.45;4.50;;;39.30;35.50;;;;;;4996325;28;20371;-70
2021/10/05 11:45:43;;;;;;;10.77;6.45;;;39.10;37.10;;;;;;4996526;28;20061;-70
2021/10/05 11:48:09;;;;;;;13.73;6.20;;;39.60;36.50;;;;;;4978916;28;20030;-70
2021/10/05 11:50:35;;;;;;;6.93;5.30;;;39.80;36.20;;;;;;4995932;28;20031;-71
2021/10/05 11:53:01;;;;;;;7.50;5.25;;;39.80;37.10;;;;;;4996475;28;20046;-71
2021/10/05 11:55:27;;;;;;;9.68;6.13;;;;;;;;;;4996288;28;20033;-71
2021/10/05 11:57:56;;;;;;;14.63;5.10;;;39.80;35.80;;;;;;4995960;28;20097;-72
2021/10/05 12:00:21;;;;;;;8.40;4.57;;;40.20;35.40;;;;;;4996588;28;20042;-72
2021/10/05 12:02:47;;;;;;;6.57;4.15;;;40.40;35.60;;;;;;4978827;28;20022;-73
2021/10/05 12:05:21;;;;;;;6.95;4.20;;;40.40;35.00;;;;;;4978730;28;20030;-72
2021/10/05 12:07:47;;;;;;;8.65;4.70;;;40.60;35.30;;;;;;4996129;28;20027;-72
2021/10/05 12:10:13;;;;;;;5.88;4.78;;;40.90;35.00;;;;;;4996179;28;20077;-74
2021/10/05 12:12:40;;;;;;;6.90;3.95;;;40.40;35.00;;;;;;4978861;28;20046;-73
2021/10/05 12:15:17;;;;;;;9.43;3.58;;;40.10;33.90;;;;;;4996004;28;20479;-73
2021/10/05 12:17:43;;;;;;;9.27;3.90;;;40.40;34.70;;;;;;4994619;28;20034;-73
2021/10/05 12:20:13;;;;;;;6.38;3.90;;;41.10;35.40;;;;;;4996024;28;20138;-73
2021/10/05 12:22:43;;;;;;;6.95;3.83;;;41.30;35.10;;;;;;4994267;28;20065;-73
2021/10/05 12:25:15;;;;;;;4.82;4.25;;;41.10;33.70;;;;;;4995949;28;20526;-73
2021/10/05 12:27:46;;;;;;;9.35;5.38;;;41.00;35.90;;;;;;4994522;28;20034;-73
2021/10/05 12:30:21;;;;;;;9.85;5.28;;;41.20;35.30;;;;;;4995922;28;20038;-73
2021/10/05 12:32:59;;;;;;;11.15;4.30;;;41.50;36.00;;;;;;4995863;28;20070;-73
2021/10/05 12:35:27;;;;;;;13.68;4.57;;;41.20;36.30;;;;;;4995399;28;20538;-72
2021/10/05 12:38:02;;;;;;;7.05;4.75;;;41.50;37.20;;;;;;4994411;28;20027;-70
2021/10/05 12:40:42;;;;;;;11.77;4.53;;;41.30;36.30;;;;;;4995719;28;20030;-75
2021/10/05 12:43:09;;;;;;;11.43;4.93;;;41.40;36.70;;;;;;4995725;28;20026;-73
2021/10/05 12:45:37;;;;;;;7.75;4.40;;;41.30;36.30;;;;;;4994235;28;20039;-73